sensor_id;sensor_type;location;lat;lon;timestamp;P1;durP1;ratioP1;P2;durP2;ratioP2
21621;SDS011;10973;46.706;12.340;2023-04-05T00:02:04;2.23;;;2.13;;
21621;SDS011;10973;46.706;12.340;2023-04-05T00:04:31;3.00;;;2.80;;
21621;SDS011;10973;46.706;12.340;2023-04-05T00:06:59;2.70;;;2.50;;
21621;SDS011;10973;46.706;12.340;2023-04-05T00:09:27;2.70;;;2.50;;
21621;SDS011;10973;46.706;12.340;2023-04-05T00:11:54;2.37;;;2.27;;
21621;SDS011;10973;46.706;12.340;2023-04-05T00:14:22;2.23;;;2.13;;
21621;SDS011;10973;46.706;12.340;2023-04-05T00:16:51;2.73;;;2.53;;
21621;SDS011;10973;46.706;12.340;2023-04-05T00:19:18;2.93;;;2.50;;
21621;SDS011;10973;46.706;12.340;2023-04-05T00:21:46;2.93;;;2.70;;
21621;SDS011;10973;46.706;12.340;2023-04-05T00:24:13;2.40;;;2.30;;
21621;SDS011;10973;46.706;12.340;2023-04-05T00:26:40;2.30;;;2.20;;
21621;SDS011;10973;46.706;12.340;2023-04-05T00:29:08;2.70;;;2.50;;
21621;SDS011;10973;46.706;12.340;2023-04-05T00:31:35;2.87;;;2.50;;
21621;SDS011;10973;46.706;12.340;2023-04-05T00:34:03;2.63;;;2.43;;
21621;SDS011;10973;46.706;12.340;2023-04-05T00:36:30;2.50;;;2.37;;
21621;SDS011;10973;46.706;12.340;2023-04-05T00:38:57;3.20;;;2.50;;
21621;SDS011;10973;46.706;12.340;2023-04-05T00:41:24;2.73;;;2.50;;
21621;SDS011;10973;46.706;12.340;2023-04-05T00:43:52;3.20;;;2.97;;
21621;SDS011;10973;46.706;12.340;2023-04-05T00:46:19;4.23;;;2.30;;
21621;SDS011;10973;46.706;12.340;2023-04-05T00:48:46;2.37;;;2.27;;
21621;SDS011;10973;46.706;12.340;2023-04-05T00:51:18;2.50;;;2.30;;
21621;SDS011;10973;46.706;12.340;2023-04-05T00:53:46;2.40;;;2.20;;
21621;SDS011;10973;46.706;12.340;2023-04-05T00:56:13;2.63;;;2.30;;
21621;SDS011;10973;46.706;12.340;2023-04-05T00:58:41;2.63;;;2.40;;
21621;SDS011;10973;46.706;12.340;2023-04-05T01:01:11;2.70;;;2.50;;
21621;SDS011;10973;46.706;12.340;2023-04-05T01:03:46;2.37;;;2.17;;
21621;SDS011;10973;46.706;12.340;2023-04-05T01:06:26;2.60;;;2.40;;
21621;SDS011;10973;46.706;12.340;2023-04-05T01:09:47;2.50;;;2.40;;
21621;SDS011;10973;46.706;12.340;2023-04-05T01:12:24;2.57;;;2.37;;
21621;SDS011;10973;46.706;12.340;2023-04-05T01:14:54;2.73;;;2.53;;
21621;SDS011;10973;46.706;12.340;2023-04-05T01:17:23;2.37;;;2.17;;
21621;SDS011;10973;46.706;12.340;2023-04-05T01:19:53;2.63;;;2.50;;
21621;SDS011;10973;46.706;12.340;2023-04-05T01:31:07;2.90;;;2.33;;
21621;SDS011;10973;46.706;12.340;2023-04-05T01:36:32;2.20;;;2.10;;
21621;SDS011;10973;46.706;12.340;2023-04-05T01:39:07;2.33;;;2.13;;
21621;SDS011;10973;46.706;12.340;2023-04-05T01:41:38;2.30;;;2.20;;
21621;SDS011;10973;46.706;12.340;2023-04-05T01:44:06;2.87;;;2.67;;
21621;SDS011;10973;46.706;12.340;2023-04-05T01:46:34;2.30;;;2.20;;
21621;SDS011;10973;46.706;12.340;2023-04-05T01:49:02;3.37;;;2.53;;
21621;SDS011;10973;46.706;12.340;2023-04-05T01:51:30;2.20;;;2.10;;
21621;SDS011;10973;46.706;12.340;2023-04-05T01:53:58;3.33;;;2.63;;
21621;SDS011;10973;46.706;12.340;2023-04-05T01:56:26;3.20;;;2.60;;
21621;SDS011;10973;46.706;12.340;2023-04-05T01:58:53;2.47;;;2.27;;
21621;SDS011;10973;46.706;12.340;2023-04-05T02:01:21;2.43;;;2.33;;
21621;SDS011;10973;46.706;12.340;2023-04-05T02:03:48;3.00;;;2.80;;
21621;SDS011;10973;46.706;12.340;2023-04-05T02:06:16;2.20;;;2.10;;
21621;SDS011;10973;46.706;12.340;2023-04-05T02:08:44;2.33;;;2.23;;
21621;SDS011;10973;46.706;12.340;2023-04-05T02:11:12;2.80;;;2.60;;
21621;SDS011;10973;46.706;12.340;2023-04-05T02:13:39;2.57;;;2.37;;
21621;SDS011;10973;46.706;12.340;2023-04-05T02:16:07;2.60;;;2.50;;
21621;SDS011;10973;46.706;12.340;2023-04-05T02:18:35;2.90;;;2.70;;
21621;SDS011;10973;46.706;12.340;2023-04-05T02:21:04;2.30;;;2.20;;
21621;SDS011;10973;46.706;12.340;2023-04-05T02:23:33;2.57;;;2.37;;
21621;SDS011;10973;46.706;12.340;2023-04-05T02:26:03;2.97;;;2.70;;
21621;SDS011;10973;46.706;12.340;2023-04-05T02:28:30;3.10;;;2.90;;
21621;SDS011;10973;46.706;12.340;2023-04-05T02:30:57;2.70;;;2.50;;
21621;SDS011;10973;46.706;12.340;2023-04-05T02:33:25;2.60;;;2.40;;
21621;SDS011;10973;46.706;12.340;2023-04-05T02:35:52;2.83;;;2.33;;
21621;SDS011;10973;46.706;12.340;2023-04-05T02:38:21;2.53;;;2.33;;
21621;SDS011;10973;46.706;12.340;2023-04-05T02:40:48;2.73;;;2.53;;
21621;SDS011;10973;46.706;12.340;2023-04-05T02:43:15;3.57;;;2.90;;
21621;SDS011;10973;46.706;12.340;2023-04-05T02:45:42;4.30;;;3.40;;
21621;SDS011;10973;46.706;12.340;2023-04-05T02:48:12;3.60;;;3.30;;
21621;SDS011;10973;46.706;12.340;2023-04-05T02:50:39;3.60;;;3.30;;
21621;SDS011;10973;46.706;12.340;2023-04-05T02:53:07;3.50;;;2.80;;
21621;SDS011;10973;46.706;12.340;2023-04-05T02:55:35;2.67;;;2.47;;
21621;SDS011;10973;46.706;12.340;2023-04-05T02:58:02;2.77;;;2.50;;
21621;SDS011;10973;46.706;12.340;2023-04-05T03:00:29;3.30;;;3.10;;
21621;SDS011;10973;46.706;12.340;2023-04-05T03:02:57;3.37;;;2.73;;
21621;SDS011;10973;46.706;12.340;2023-04-05T03:05:24;2.43;;;2.33;;
21621;SDS011;10973;46.706;12.340;2023-04-05T03:07:52;2.87;;;2.67;;
21621;SDS011;10973;46.706;12.340;2023-04-05T03:10:21;3.47;;;3.10;;
21621;SDS011;10973;46.706;12.340;2023-04-05T03:12:48;3.47;;;2.70;;
21621;SDS011;10973;46.706;12.340;2023-04-05T03:15:15;9.90;;;3.43;;
21621;SDS011;10973;46.706;12.340;2023-04-05T03:17:42;3.20;;;2.90;;
21621;SDS011;10973;46.706;12.340;2023-04-05T03:20:10;6.47;;;3.30;;
21621;SDS011;10973;46.706;12.340;2023-04-05T03:22:38;10.93;;;3.30;;
21621;SDS011;10973;46.706;12.340;2023-04-05T03:25:06;3.17;;;2.97;;
21621;SDS011;10973;46.706;12.340;2023-04-05T03:27:33;3.10;;;2.90;;
21621;SDS011;10973;46.706;12.340;2023-04-05T03:30:01;3.70;;;3.00;;
21621;SDS011;10973;46.706;12.340;2023-04-05T03:32:29;7.10;;;2.57;;
21621;SDS011;10973;46.706;12.340;2023-04-05T03:34:56;3.53;;;3.03;;
21621;SDS011;10973;46.706;12.340;2023-04-05T03:37:23;5.03;;;2.80;;
21621;SDS011;10973;46.706;12.340;2023-04-05T03:39:55;4.13;;;2.97;;
21621;SDS011;10973;46.706;12.340;2023-04-05T03:42:22;4.80;;;3.47;;
21621;SDS011;10973;46.706;12.340;2023-04-05T03:44:50;3.93;;;3.57;;
21621;SDS011;10973;46.706;12.340;2023-04-05T03:47:18;7.50;;;3.30;;
21621;SDS011;10973;46.706;12.340;2023-04-05T03:49:46;3.40;;;3.20;;
21621;SDS011;10973;46.706;12.340;2023-04-05T03:52:13;4.27;;;3.13;;
21621;SDS011;10973;46.706;12.340;2023-04-05T03:54:41;11.33;;;2.80;;
21621;SDS011;10973;46.706;12.340;2023-04-05T03:57:09;5.93;;;3.27;;
21621;SDS011;10973;46.706;12.340;2023-04-05T03:59:36;3.73;;;2.90;;
21621;SDS011;10973;46.706;12.340;2023-04-05T04:02:03;4.00;;;3.60;;
21621;SDS011;10973;46.706;12.340;2023-04-05T04:04:30;21.63;;;6.33;;
21621;SDS011;10973;46.706;12.340;2023-04-05T04:06:57;22.10;;;7.53;;
21621;SDS011;10973;46.706;12.340;2023-04-05T04:09:26;15.47;;;5.63;;
21621;SDS011;10973;46.706;12.340;2023-04-05T04:11:54;6.07;;;5.47;;
21621;SDS011;10973;46.706;12.340;2023-04-05T04:14:22;12.50;;;5.60;;
21621;SDS011;10973;46.706;12.340;2023-04-05T04:16:51;4.97;;;4.47;;
21621;SDS011;10973;46.706;12.340;2023-04-05T04:19:19;7.00;;;4.57;;
21621;SDS011;10973;46.706;12.340;2023-04-05T04:21:49;4.90;;;4.30;;
21621;SDS011;10973;46.706;12.340;2023-04-05T04:24:19;6.27;;;5.30;;
21621;SDS011;10973;46.706;12.340;2023-04-05T04:26:47;5.03;;;4.53;;
21621;SDS011;10973;46.706;12.340;2023-04-05T04:29:15;10.23;;;5.70;;
21621;SDS011;10973;46.706;12.340;2023-04-05T04:31:42;5.27;;;4.23;;
21621;SDS011;10973;46.706;12.340;2023-04-05T04:34:10;10.87;;;4.33;;
21621;SDS011;10973;46.706;12.340;2023-04-05T04:36:39;14.77;;;7.80;;
21621;SDS011;10973;46.706;12.340;2023-04-05T04:39:08;9.23;;;6.43;;
21621;SDS011;10973;46.706;12.340;2023-04-05T04:41:35;7.90;;;6.60;;
21621;SDS011;10973;46.706;12.340;2023-04-05T04:44:02;9.30;;;5.90;;
21621;SDS011;10973;46.706;12.340;2023-04-05T04:46:32;7.83;;;5.87;;
21621;SDS011;10973;46.706;12.340;2023-04-05T04:49:00;12.13;;;5.37;;
21621;SDS011;10973;46.706;12.340;2023-04-05T04:51:27;5.03;;;4.53;;
21621;SDS011;10973;46.706;12.340;2023-04-05T04:53:55;12.13;;;5.30;;
21621;SDS011;10973;46.706;12.340;2023-04-05T04:56:22;14.93;;;5.90;;
21621;SDS011;10973;46.706;12.340;2023-04-05T04:58:52;10.33;;;6.57;;
21621;SDS011;10973;46.706;12.340;2023-04-05T05:01:22;24.53;;;8.70;;
21621;SDS011;10973;46.706;12.340;2023-04-05T05:03:50;26.27;;;8.77;;
21621;SDS011;10973;46.706;12.340;2023-04-05T05:06:17;12.93;;;6.93;;
21621;SDS011;10973;46.706;12.340;2023-04-05T05:08:45;10.70;;;6.43;;
21621;SDS011;10973;46.706;12.340;2023-04-05T05:11:12;11.27;;;6.17;;
21621;SDS011;10973;46.706;12.340;2023-04-05T05:13:39;11.77;;;7.30;;
21621;SDS011;10973;46.706;12.340;2023-04-05T05:16:09;13.37;;;7.87;;
21621;SDS011;10973;46.706;12.340;2023-04-05T05:18:36;13.77;;;8.00;;
21621;SDS011;10973;46.706;12.340;2023-04-05T05:21:04;15.60;;;8.03;;
21621;SDS011;10973;46.706;12.340;2023-04-05T05:23:31;16.13;;;9.17;;
21621;SDS011;10973;46.706;12.340;2023-04-05T05:25:58;12.73;;;9.63;;
21621;SDS011;10973;46.706;12.340;2023-04-05T05:28:26;16.93;;;9.77;;
21621;SDS011;10973;46.706;12.340;2023-04-05T05:30:53;26.50;;;9.87;;
21621;SDS011;10973;46.706;12.340;2023-04-05T05:33:21;15.27;;;8.77;;
21621;SDS011;10973;46.706;12.340;2023-04-05T05:35:48;24.43;;;8.77;;
21621;SDS011;10973;46.706;12.340;2023-04-05T05:38:16;14.70;;;8.00;;
21621;SDS011;10973;46.706;12.340;2023-04-05T05:40:44;13.13;;;9.30;;
21621;SDS011;10973;46.706;12.340;2023-04-05T05:43:11;15.60;;;9.30;;
21621;SDS011;10973;46.706;12.340;2023-04-05T05:45:38;11.77;;;7.73;;
21621;SDS011;10973;46.706;12.340;2023-04-05T05:48:05;15.03;;;7.37;;
21621;SDS011;10973;46.706;12.340;2023-04-05T05:50:33;11.70;;;8.00;;
21621;SDS011;10973;46.706;12.340;2023-04-05T05:53:00;11.80;;;7.83;;
21621;SDS011;10973;46.706;12.340;2023-04-05T05:55:27;11.50;;;6.60;;
21621;SDS011;10973;46.706;12.340;2023-04-05T05:57:54;11.77;;;7.97;;
21621;SDS011;10973;46.706;12.340;2023-04-05T06:00:22;14.77;;;7.50;;
21621;SDS011;10973;46.706;12.340;2023-04-05T06:02:49;13.53;;;7.70;;
21621;SDS011;10973;46.706;12.340;2023-04-05T06:05:17;11.07;;;7.33;;
21621;SDS011;10973;46.706;12.340;2023-04-05T06:07:44;13.00;;;9.50;;
21621;SDS011;10973;46.706;12.340;2023-04-05T06:10:11;12.17;;;9.03;;
21621;SDS011;10973;46.706;12.340;2023-04-05T06:12:39;16.00;;;8.63;;
21621;SDS011;10973;46.706;12.340;2023-04-05T06:15:07;12.73;;;8.77;;
21621;SDS011;10973;46.706;12.340;2023-04-05T06:17:35;12.07;;;8.50;;
21621;SDS011;10973;46.706;12.340;2023-04-05T06:20:02;11.67;;;10.23;;
21621;SDS011;10973;46.706;12.340;2023-04-05T06:22:30;10.77;;;8.87;;
21621;SDS011;10973;46.706;12.340;2023-04-05T06:24:57;10.23;;;8.00;;
21621;SDS011;10973;46.706;12.340;2023-04-05T06:27:24;10.10;;;7.77;;
21621;SDS011;10973;46.706;12.340;2023-04-05T06:29:52;7.50;;;6.63;;
21621;SDS011;10973;46.706;12.340;2023-04-05T06:32:19;12.23;;;5.90;;
21621;SDS011;10973;46.706;12.340;2023-04-05T06:34:46;11.83;;;6.27;;
21621;SDS011;10973;46.706;12.340;2023-04-05T06:37:13;7.67;;;5.93;;
21621;SDS011;10973;46.706;12.340;2023-04-05T06:39:41;16.60;;;6.80;;
21621;SDS011;10973;46.706;12.340;2023-04-05T06:42:08;10.93;;;4.83;;
21621;SDS011;10973;46.706;12.340;2023-04-05T06:44:35;7.10;;;5.23;;
21621;SDS011;10973;46.706;12.340;2023-04-05T06:47:02;12.63;;;5.03;;
21621;SDS011;10973;46.706;12.340;2023-04-05T06:49:29;10.33;;;4.80;;
21621;SDS011;10973;46.706;12.340;2023-04-05T06:51:57;5.70;;;5.17;;
21621;SDS011;10973;46.706;12.340;2023-04-05T06:54:24;6.57;;;4.60;;
21621;SDS011;10973;46.706;12.340;2023-04-05T06:56:51;7.23;;;4.63;;
21621;SDS011;10973;46.706;12.340;2023-04-05T06:59:18;8.13;;;4.57;;
21621;SDS011;10973;46.706;12.340;2023-04-05T07:01:46;3.80;;;3.47;;
21621;SDS011;10973;46.706;12.340;2023-04-05T07:04:13;6.80;;;4.13;;
21621;SDS011;10973;46.706;12.340;2023-04-05T07:06:40;4.37;;;3.23;;
21621;SDS011;10973;46.706;12.340;2023-04-05T07:09:07;4.37;;;3.50;;
21621;SDS011;10973;46.706;12.340;2023-04-05T07:11:35;3.50;;;3.20;;
21621;SDS011;10973;46.706;12.340;2023-04-05T07:14:02;3.70;;;3.40;;
21621;SDS011;10973;46.706;12.340;2023-04-05T07:16:29;4.00;;;3.40;;
21621;SDS011;10973;46.706;12.340;2023-04-05T07:18:57;4.73;;;3.60;;
21621;SDS011;10973;46.706;12.340;2023-04-05T07:21:27;5.50;;;3.10;;
21621;SDS011;10973;46.706;12.340;2023-04-05T07:23:54;3.20;;;3.00;;
21621;SDS011;10973;46.706;12.340;2023-04-05T07:26:21;3.33;;;3.03;;
21621;SDS011;10973;46.706;12.340;2023-04-05T07:28:48;3.23;;;2.83;;
21621;SDS011;10973;46.706;12.340;2023-04-05T07:31:16;3.23;;;2.93;;
21621;SDS011;10973;46.706;12.340;2023-04-05T07:33:43;3.63;;;2.90;;
21621;SDS011;10973;46.706;12.340;2023-04-05T07:36:10;3.10;;;2.80;;
21621;SDS011;10973;46.706;12.340;2023-04-05T07:38:37;10.63;;;3.03;;
21621;SDS011;10973;46.706;12.340;2023-04-05T07:41:04;3.63;;;3.37;;
21621;SDS011;10973;46.706;12.340;2023-04-05T07:43:32;2.90;;;2.70;;
21621;SDS011;10973;46.706;12.340;2023-04-05T07:46:02;3.70;;;2.63;;
21621;SDS011;10973;46.706;12.340;2023-04-05T07:48:30;4.57;;;2.83;;
21621;SDS011;10973;46.706;12.340;2023-04-05T07:51:07;7.60;;;2.70;;
21621;SDS011;10973;46.706;12.340;2023-04-05T07:53:35;3.53;;;2.50;;
21621;SDS011;10973;46.706;12.340;2023-04-05T07:56:03;3.17;;;2.90;;
21621;SDS011;10973;46.706;12.340;2023-04-05T07:58:35;5.43;;;2.50;;
21621;SDS011;10973;46.706;12.340;2023-04-05T08:01:03;6.60;;;2.50;;
21621;SDS011;10973;46.706;12.340;2023-04-05T08:03:30;2.33;;;2.23;;
21621;SDS011;10973;46.706;12.340;2023-04-05T08:05:58;2.30;;;2.20;;
21621;SDS011;10973;46.706;12.340;2023-04-05T08:08:39;4.33;;;2.50;;
21621;SDS011;10973;46.706;12.340;2023-04-05T08:11:07;2.90;;;2.50;;
21621;SDS011;10973;46.706;12.340;2023-04-05T08:13:34;3.03;;;2.60;;
21621;SDS011;10973;46.706;12.340;2023-04-05T08:16:01;2.43;;;2.23;;
21621;SDS011;10973;46.706;12.340;2023-04-05T08:18:28;2.73;;;2.53;;
21621;SDS011;10973;46.706;12.340;2023-04-05T08:20:56;6.50;;;2.70;;
21621;SDS011;10973;46.706;12.340;2023-04-05T08:23:23;2.90;;;2.60;;
21621;SDS011;10973;46.706;12.340;2023-04-05T08:25:51;7.20;;;2.70;;
21621;SDS011;10973;46.706;12.340;2023-04-05T08:28:19;9.47;;;3.20;;
21621;SDS011;10973;46.706;12.340;2023-04-05T08:30:46;3.23;;;2.93;;
21621;SDS011;10973;46.706;12.340;2023-04-05T08:33:18;4.70;;;2.40;;
21621;SDS011;10973;46.706;12.340;2023-04-05T08:35:45;3.40;;;2.73;;
21621;SDS011;10973;46.706;12.340;2023-04-05T08:38:12;3.43;;;2.37;;
21621;SDS011;10973;46.706;12.340;2023-04-05T08:43:13;4.87;;;2.50;;
21621;SDS011;10973;46.706;12.340;2023-04-05T08:45:50;6.30;;;2.67;;
21621;SDS011;10973;46.706;12.340;2023-04-05T08:48:19;2.50;;;2.30;;
21621;SDS011;10973;46.706;12.340;2023-04-05T08:50:49;9.77;;;2.30;;
21621;SDS011;10973;46.706;12.340;2023-04-05T08:53:21;3.27;;;2.00;;
21621;SDS011;10973;46.706;12.340;2023-04-05T08:55:49;2.20;;;2.10;;
21621;SDS011;10973;46.706;12.340;2023-04-05T08:58:21;3.60;;;2.40;;
21621;SDS011;10973;46.706;12.340;2023-04-05T09:00:51;2.53;;;2.20;;
21621;SDS011;10973;46.706;12.340;2023-04-05T09:03:21;2.40;;;2.20;;
21621;SDS011;10973;46.706;12.340;2023-04-05T09:05:54;2.33;;;2.00;;
21621;SDS011;10973;46.706;12.340;2023-04-05T09:08:25;2.20;;;2.10;;
21621;SDS011;10973;46.706;12.340;2023-04-05T09:10:52;2.27;;;2.07;;
21621;SDS011;10973;46.706;12.340;2023-04-05T09:13:20;2.03;;;1.93;;
21621;SDS011;10973;46.706;12.340;2023-04-05T09:15:47;1.83;;;1.73;;
21621;SDS011;10973;46.706;12.340;2023-04-05T09:18:14;1.97;;;1.87;;
21621;SDS011;10973;46.706;12.340;2023-04-05T09:21:00;2.30;;;2.10;;
21621;SDS011;10973;46.706;12.340;2023-04-05T09:23:35;2.23;;;2.10;;
21621;SDS011;10973;46.706;12.340;2023-04-05T09:26:24;2.30;;;2.10;;
21621;SDS011;10973;46.706;12.340;2023-04-05T09:28:51;1.83;;;1.73;;
21621;SDS011;10973;46.706;12.340;2023-04-05T09:31:33;2.60;;;2.07;;
21621;SDS011;10973;46.706;12.340;2023-04-05T09:34:02;1.90;;;1.80;;
21621;SDS011;10973;46.706;12.340;2023-04-05T09:36:34;1.77;;;1.67;;
21621;SDS011;10973;46.706;12.340;2023-04-05T09:39:08;1.70;;;1.60;;
21621;SDS011;10973;46.706;12.340;2023-04-05T09:41:36;2.43;;;2.23;;
21621;SDS011;10973;46.706;12.340;2023-04-05T09:44:03;2.17;;;2.07;;
21621;SDS011;10973;46.706;12.340;2023-04-05T09:46:31;2.30;;;2.20;;
21621;SDS011;10973;46.706;12.340;2023-04-05T09:49:02;8.03;;;2.30;;
21621;SDS011;10973;46.706;12.340;2023-04-05T09:51:33;8.87;;;2.50;;
21621;SDS011;10973;46.706;12.340;2023-04-05T09:54:08;2.00;;;1.90;;
21621;SDS011;10973;46.706;12.340;2023-04-05T09:56:37;5.73;;;2.00;;
21621;SDS011;10973;46.706;12.340;2023-04-05T09:59:18;4.37;;;1.53;;
21621;SDS011;10973;46.706;12.340;2023-04-05T10:01:51;3.77;;;1.97;;
21621;SDS011;10973;46.706;12.340;2023-04-05T10:04:18;1.40;;;1.40;;
21621;SDS011;10973;46.706;12.340;2023-04-05T10:06:45;1.50;;;1.50;;
21621;SDS011;10973;46.706;12.340;2023-04-05T10:09:13;1.67;;;1.60;;
21621;SDS011;10973;46.706;12.340;2023-04-05T10:11:43;1.50;;;1.40;;
21621;SDS011;10973;46.706;12.340;2023-04-05T10:14:11;1.73;;;1.63;;
21621;SDS011;10973;46.706;12.340;2023-04-05T10:16:42;1.27;;;1.27;;
21621;SDS011;10973;46.706;12.340;2023-04-05T10:19:27;1.70;;;1.40;;
21621;SDS011;10973;46.706;12.340;2023-04-05T10:22:22;1.40;;;1.40;;
21621;SDS011;10973;46.706;12.340;2023-04-05T10:24:59;1.33;;;1.33;;
21621;SDS011;10973;46.706;12.340;2023-04-05T10:27:39;1.70;;;1.60;;
21621;SDS011;10973;46.706;12.340;2023-04-05T10:30:17;2.47;;;1.40;;
21621;SDS011;10973;46.706;12.340;2023-04-05T10:33:46;1.50;;;1.40;;
21621;SDS011;10973;46.706;12.340;2023-04-05T10:35:59;1.37;;;1.37;;
21621;SDS011;10973;46.706;12.340;2023-04-05T10:38:45;1.40;;;1.40;;
21621;SDS011;10973;46.706;12.340;2023-04-05T10:41:33;1.30;;;1.30;;
21621;SDS011;10973;46.706;12.340;2023-04-05T10:44:08;1.40;;;1.40;;
21621;SDS011;10973;46.706;12.340;2023-04-05T10:46:52;1.30;;;1.30;;
21621;SDS011;10973;46.706;12.340;2023-04-05T10:49:38;4.50;;;2.13;;
21621;SDS011;10973;46.706;12.340;2023-04-05T10:52:10;42.37;;;4.67;;
21621;SDS011;10973;46.706;12.340;2023-04-05T10:54:38;3.70;;;3.33;;
21621;SDS011;10973;46.706;12.340;2023-04-05T10:57:06;10.63;;;1.77;;
21621;SDS011;10973;46.706;12.340;2023-04-05T10:59:40;5.57;;;3.17;;
21621;SDS011;10973;46.706;12.340;2023-04-05T11:02:10;2.90;;;1.40;;
21621;SDS011;10973;46.706;12.340;2023-04-05T11:04:39;2.40;;;1.40;;
21621;SDS011;10973;46.706;12.340;2023-04-05T11:07:14;10.70;;;1.87;;
21621;SDS011;10973;46.706;12.340;2023-04-05T11:20:46;2.80;;;1.10;;
21621;SDS011;10973;46.706;12.340;2023-04-05T11:23:19;1.02;;;1.02;;
21621;SDS011;10973;46.706;12.340;2023-04-05T11:25:55;1.37;;;0.90;;
21621;SDS011;10973;46.706;12.340;2023-04-05T11:28:34;1.10;;;1.10;;
21621;SDS011;10973;46.706;12.340;2023-04-05T11:31:13;1.33;;;1.23;;
21621;SDS011;10973;46.706;12.340;2023-04-05T11:36:29;1.60;;;1.33;;
21621;SDS011;10973;46.706;12.340;2023-04-05T11:41:53;1.30;;;1.20;;
21621;SDS011;10973;46.706;12.340;2023-04-05T11:44:29;1.60;;;1.50;;
21621;SDS011;10973;46.706;12.340;2023-04-05T11:47:07;1.00;;;1.00;;
21621;SDS011;10973;46.706;12.340;2023-04-05T11:49:35;1.20;;;1.20;;
21621;SDS011;10973;46.706;12.340;2023-04-05T11:52:13;25.37;;;2.83;;
21621;SDS011;10973;46.706;12.340;2023-04-05T11:54:46;3.13;;;1.50;;
21621;SDS011;10973;46.706;12.340;2023-04-05T11:57:20;2.63;;;1.20;;
21621;SDS011;10973;46.706;12.340;2023-04-05T11:59:49;1.33;;;1.27;;
21621;SDS011;10973;46.706;12.340;2023-04-05T12:02:18;0.90;;;0.90;;
21621;SDS011;10973;46.706;12.340;2023-04-05T12:04:56;1.00;;;1.00;;
21621;SDS011;10973;46.706;12.340;2023-04-05T12:07:27;1.23;;;1.20;;
21621;SDS011;10973;46.706;12.340;2023-04-05T12:09:59;1.27;;;1.20;;
21621;SDS011;10973;46.706;12.340;2023-04-05T12:12:39;1.20;;;1.20;;
21621;SDS011;10973;46.706;12.340;2023-04-05T12:15:09;1.10;;;1.10;;
21621;SDS011;10973;46.706;12.340;2023-04-05T12:17:48;1.00;;;1.00;;
21621;SDS011;10973;46.706;12.340;2023-04-05T12:20:18;1.30;;;1.30;;
21621;SDS011;10973;46.706;12.340;2023-04-05T12:22:48;1.27;;;1.27;;
21621;SDS011;10973;46.706;12.340;2023-04-05T12:25:18;1.20;;;1.20;;
21621;SDS011;10973;46.706;12.340;2023-04-05T12:27:47;1.30;;;1.30;;
21621;SDS011;10973;46.706;12.340;2023-04-05T12:30:15;1.03;;;1.03;;
21621;SDS011;10973;46.706;12.340;2023-04-05T12:32:49;1.63;;;1.00;;
21621;SDS011;10973;46.706;12.340;2023-04-05T12:35:27;1.20;;;1.20;;
21621;SDS011;10973;46.706;12.340;2023-04-05T12:37:56;1.10;;;1.10;;
21621;SDS011;10973;46.706;12.340;2023-04-05T12:40:24;1.40;;;1.40;;
21621;SDS011;10973;46.706;12.340;2023-04-05T12:42:53;1.97;;;1.30;;
21621;SDS011;10973;46.706;12.340;2023-04-05T12:45:32;2.10;;;1.20;;
21621;SDS011;10973;46.706;12.340;2023-04-05T12:48:00;1.17;;;1.17;;
21621;SDS011;10973;46.706;12.340;2023-04-05T12:50:28;1.23;;;1.20;;
21621;SDS011;10973;46.706;12.340;2023-04-05T12:52:57;1.63;;;1.30;;
21621;SDS011;10973;46.706;12.340;2023-04-05T12:55:30;1.97;;;1.10;;
21621;SDS011;10973;46.706;12.340;2023-04-05T12:57:59;1.10;;;1.10;;
21621;SDS011;10973;46.706;12.340;2023-04-05T13:00:28;3.30;;;1.37;;
21621;SDS011;10973;46.706;12.340;2023-04-05T13:02:56;1.20;;;1.20;;
21621;SDS011;10973;46.706;12.340;2023-04-05T13:05:26;1.17;;;1.17;;
21621;SDS011;10973;46.706;12.340;2023-04-05T13:07:56;1.20;;;1.20;;
21621;SDS011;10973;46.706;12.340;2023-04-05T13:10:24;1.20;;;1.20;;
21621;SDS011;10973;46.706;12.340;2023-04-05T13:12:51;1.13;;;1.13;;
21621;SDS011;10973;46.706;12.340;2023-04-05T13:15:19;7.37;;;1.70;;
21621;SDS011;10973;46.706;12.340;2023-04-05T13:17:46;1.33;;;1.23;;
21621;SDS011;10973;46.706;12.340;2023-04-05T13:20:14;4.43;;;1.43;;
21621;SDS011;10973;46.706;12.340;2023-04-05T13:22:43;1.10;;;1.10;;
21621;SDS011;10973;46.706;12.340;2023-04-05T13:25:12;1.10;;;1.10;;
21621;SDS011;10973;46.706;12.340;2023-04-05T13:27:40;1.10;;;1.10;;
21621;SDS011;10973;46.706;12.340;2023-04-05T13:30:08;1.33;;;1.33;;
21621;SDS011;10973;46.706;12.340;2023-04-05T13:32:36;1.00;;;1.00;;
21621;SDS011;10973;46.706;12.340;2023-04-05T13:35:04;1.17;;;1.17;;
21621;SDS011;10973;46.706;12.340;2023-04-05T13:37:31;1.00;;;1.00;;
21621;SDS011;10973;46.706;12.340;2023-04-05T13:39:59;1.30;;;1.20;;
21621;SDS011;10973;46.706;12.340;2023-04-05T13:42:26;1.20;;;1.20;;
21621;SDS011;10973;46.706;12.340;2023-04-05T13:44:53;1.10;;;1.00;;
21621;SDS011;10973;46.706;12.340;2023-04-05T13:47:20;1.00;;;1.00;;
21621;SDS011;10973;46.706;12.340;2023-04-05T13:49:48;2.03;;;1.90;;
21621;SDS011;10973;46.706;12.340;2023-04-05T13:52:15;1.10;;;1.10;;
21621;SDS011;10973;46.706;12.340;2023-04-05T13:54:42;1.10;;;1.10;;
21621;SDS011;10973;46.706;12.340;2023-04-05T13:57:10;1.63;;;1.40;;
21621;SDS011;10973;46.706;12.340;2023-04-05T13:59:37;2.57;;;1.40;;
21621;SDS011;10973;46.706;12.340;2023-04-05T14:02:05;4.30;;;1.37;;
21621;SDS011;10973;46.706;12.340;2023-04-05T14:04:34;1.60;;;1.20;;
21621;SDS011;10973;46.706;12.340;2023-04-05T14:07:01;1.37;;;1.37;;
21621;SDS011;10973;46.706;12.340;2023-04-05T14:09:29;1.37;;;1.37;;
21621;SDS011;10973;46.706;12.340;2023-04-05T14:11:56;1.27;;;1.17;;
21621;SDS011;10973;46.706;12.340;2023-04-05T14:14:25;1.37;;;1.37;;
21621;SDS011;10973;46.706;12.340;2023-04-05T14:16:52;1.30;;;1.30;;
21621;SDS011;10973;46.706;12.340;2023-04-05T14:19:20;5.83;;;1.57;;
21621;SDS011;10973;46.706;12.340;2023-04-05T14:21:47;1.00;;;1.00;;
21621;SDS011;10973;46.706;12.340;2023-04-05T14:24:15;1.30;;;1.20;;
21621;SDS011;10973;46.706;12.340;2023-04-05T14:26:42;1.30;;;1.20;;
21621;SDS011;10973;46.706;12.340;2023-04-05T14:29:09;1.13;;;1.13;;
21621;SDS011;10973;46.706;12.340;2023-04-05T14:31:37;1.30;;;1.30;;
21621;SDS011;10973;46.706;12.340;2023-04-05T14:34:04;1.00;;;1.00;;
21621;SDS011;10973;46.706;12.340;2023-04-05T14:36:31;1.10;;;1.10;;
21621;SDS011;10973;46.706;12.340;2023-04-05T14:38:59;1.10;;;1.10;;
21621;SDS011;10973;46.706;12.340;2023-04-05T14:41:26;1.50;;;1.50;;
21621;SDS011;10973;46.706;12.340;2023-04-05T14:43:53;1.50;;;1.40;;
21621;SDS011;10973;46.706;12.340;2023-04-05T14:46:21;2.33;;;1.63;;
21621;SDS011;10973;46.706;12.340;2023-04-05T14:48:49;1.20;;;1.20;;
21621;SDS011;10973;46.706;12.340;2023-04-05T14:51:16;1.20;;;1.20;;
21621;SDS011;10973;46.706;12.340;2023-04-05T14:53:44;1.27;;;1.27;;
21621;SDS011;10973;46.706;12.340;2023-04-05T14:56:11;1.20;;;1.10;;
21621;SDS011;10973;46.706;12.340;2023-04-05T14:58:39;1.10;;;1.10;;
21621;SDS011;10973;46.706;12.340;2023-04-05T15:01:06;16.13;;;2.10;;
21621;SDS011;10973;46.706;12.340;2023-04-05T15:03:34;0.97;;;0.97;;
21621;SDS011;10973;46.706;12.340;2023-04-05T15:06:03;6.90;;;2.10;;
21621;SDS011;10973;46.706;12.340;2023-04-05T15:08:31;1.80;;;1.40;;
21621;SDS011;10973;46.706;12.340;2023-04-05T15:10:58;3.40;;;1.80;;
21621;SDS011;10973;46.706;12.340;2023-04-05T15:13:26;3.73;;;1.90;;
21621;SDS011;10973;46.706;12.340;2023-04-05T15:15:53;1.73;;;1.40;;
21621;SDS011;10973;46.706;12.340;2023-04-05T15:18:20;1.50;;;1.40;;